sensor_id;sensor_type;location;lat;lon;timestamp;pressure;altitude;pressure_sealevel;temperature;humidity
51299;BME280;37382;45.192;9.790;2022-07-29T00:00:31;101044.25;;;25.74;100.00
51299;BME280;37382;45.192;9.790;2022-07-29T00:02:59;101060.25;;;25.58;100.00
51299;BME280;37382;45.192;9.790;2022-07-29T00:05:27;101069.53;;;25.48;100.00
51299;BME280;37382;45.192;9.790;2022-07-29T00:07:55;101058.91;;;25.11;100.00
51299;BME280;37382;45.192;9.790;2022-07-29T00:10:22;101050.84;;;25.54;100.00
51299;BME280;37382;45.192;9.790;2022-07-29T00:12:50;101044.97;;;25.85;100.00
51299;BME280;37382;45.192;9.790;2022-07-29T00:15:18;101043.66;;;25.77;100.00
51299;BME280;37382;45.192;9.790;2022-07-29T00:17:46;101037.13;;;25.63;100.00
51299;BME280;37382;45.192;9.790;2022-07-29T00:20:13;101041.91;;;25.86;100.00
51299;BME280;37382;45.192;9.790;2022-07-29T00:22:41;101046.84;;;25.31;100.00
51299;BME280;37382;45.192;9.790;2022-07-29T00:25:08;101051.88;;;25.18;100.00
51299;BME280;37382;45.192;9.790;2022-07-29T00:27:36;101044.78;;;25.76;100.00
51299;BME280;37382;45.192;9.790;2022-07-29T00:30:04;101032.69;;;25.56;100.00
51299;BME280;37382;45.192;9.790;2022-07-29T00:32:32;101031.84;;;25.61;100.00
51299;BME280;37382;45.192;9.790;2022-07-29T00:35:00;101039.19;;;25.47;100.00
51299;BME280;37382;45.192;9.790;2022-07-29T00:37:46;101040.22;;;25.16;100.00
51299;BME280;37382;45.192;9.790;2022-07-29T00:40:13;101038.16;;;24.93;100.00
51299;BME280;37382;45.192;9.790;2022-07-29T00:42:46;101049.25;;;24.27;100.00
51299;BME280;37382;45.192;9.790;2022-07-29T00:45:15;101054.00;;;24.11;100.00
51299;BME280;37382;45.192;9.790;2022-07-29T00:47:43;101052.38;;;24.00;100.00
51299;BME280;37382;45.192;9.790;2022-07-29T00:50:12;101042.91;;;24.17;100.00
51299;BME280;37382;45.192;9.790;2022-07-29T00:52:41;101047.06;;;24.14;100.00
51299;BME280;37382;45.192;9.790;2022-07-29T00:55:14;101039.59;;;23.89;100.00
51299;BME280;37382;45.192;9.790;2022-07-29T00:57:43;101031.25;;;24.09;100.00
51299;BME280;37382;45.192;9.790;2022-07-29T01:00:17;101028.63;;;24.39;100.00
51299;BME280;37382;45.192;9.790;2022-07-29T01:02:46;101031.34;;;24.54;100.00
51299;BME280;37382;45.192;9.790;2022-07-29T01:05:20;101034.97;;;24.55;100.00
51299;BME280;37382;45.192;9.790;2022-07-29T01:07:50;101042.88;;;24.22;100.00
51299;BME280;37382;45.192;9.790;2022-07-29T01:10:20;101031.22;;;24.04;100.00
51299;BME280;37382;45.192;9.790;2022-07-29T01:12:51;101038.19;;;24.02;100.00
51299;BME280;37382;45.192;9.790;2022-07-29T01:15:19;101037.34;;;24.11;100.00
51299;BME280;37382;45.192;9.790;2022-07-29T01:31:48;101015.53;;;24.49;100.00
51299;BME280;37382;45.192;9.790;2022-07-29T01:34:46;101011.91;;;24.44;100.00
51299;BME280;37382;45.192;9.790;2022-07-29T01:40:22;101016.69;;;24.33;100.00
51299;BME280;37382;45.192;9.790;2022-07-29T01:42:52;101001.31;;;24.51;100.00
51299;BME280;37382;45.192;9.790;2022-07-29T01:45:26;100995.13;;;24.75;100.00
51299;BME280;37382;45.192;9.790;2022-07-29T01:47:58;101002.44;;;24.55;100.00
51299;BME280;37382;45.192;9.790;2022-07-29T01:50:45;101003.06;;;24.37;100.00
51299;BME280;37382;45.192;9.790;2022-07-29T01:53:16;100997.22;;;24.33;100.00
51299;BME280;37382;45.192;9.790;2022-07-29T01:55:48;100999.22;;;24.22;100.00
51299;BME280;37382;45.192;9.790;2022-07-29T01:58:17;101001.47;;;24.20;100.00
51299;BME280;37382;45.192;9.790;2022-07-29T02:00:47;100995.22;;;24.49;100.00
51299;BME280;37382;45.192;9.790;2022-07-29T02:03:17;100995.66;;;24.77;100.00
51299;BME280;37382;45.192;9.790;2022-07-29T02:05:46;101004.75;;;24.32;100.00
51299;BME280;37382;45.192;9.790;2022-07-29T02:08:16;101001.22;;;24.17;100.00
51299;BME280;37382;45.192;9.790;2022-07-29T02:10:47;101003.13;;;24.21;100.00
51299;BME280;37382;45.192;9.790;2022-07-29T02:13:16;101003.47;;;23.84;100.00
51299;BME280;37382;45.192;9.790;2022-07-29T02:15:45;101006.81;;;23.86;100.00
51299;BME280;37382;45.192;9.790;2022-07-29T02:18:17;101025.72;;;23.94;100.00
51299;BME280;37382;45.192;9.790;2022-07-29T02:20:50;101026.84;;;23.88;100.00
51299;BME280;37382;45.192;9.790;2022-07-29T02:23:21;101030.69;;;23.66;100.00
51299;BME280;37382;45.192;9.790;2022-07-29T02:25:52;101036.81;;;23.84;100.00
51299;BME280;37382;45.192;9.790;2022-07-29T02:28:22;101030.69;;;24.02;100.00
51299;BME280;37382;45.192;9.790;2022-07-29T02:30:51;101022.94;;;23.94;100.00
51299;BME280;37382;45.192;9.790;2022-07-29T02:33:20;101032.09;;;23.69;100.00
51299;BME280;37382;45.192;9.790;2022-07-29T02:35:49;101033.19;;;23.78;100.00
51299;BME280;37382;45.192;9.790;2022-07-29T02:38:18;101032.06;;;23.84;100.00
51299;BME280;37382;45.192;9.790;2022-07-29T02:41:10;101024.31;;;23.91;100.00
51299;BME280;37382;45.192;9.790;2022-07-29T02:43:39;101034.03;;;23.78;100.00
51299;BME280;37382;45.192;9.790;2022-07-29T02:46:14;101032.66;;;24.02;100.00
51299;BME280;37382;45.192;9.790;2022-07-29T02:51:54;101017.34;;;24.09;100.00
51299;BME280;37382;45.192;9.790;2022-07-29T02:54:47;101015.69;;;24.03;100.00
51299;BME280;37382;45.192;9.790;2022-07-29T02:57:29;101024.31;;;24.02;100.00
51299;BME280;37382;45.192;9.790;2022-07-29T02:59:59;101031.25;;;23.84;100.00
51299;BME280;37382;45.192;9.790;2022-07-29T03:02:36;101029.56;;;23.83;100.00
51299;BME280;37382;45.192;9.790;2022-07-29T03:05:06;101036.81;;;23.68;100.00
51299;BME280;37382;45.192;9.790;2022-07-29T03:07:36;101034.59;;;23.86;100.00
51299;BME280;37382;45.192;9.790;2022-07-29T03:10:06;101031.84;;;23.91;100.00
51299;BME280;37382;45.192;9.790;2022-07-29T03:12:40;101032.06;;;23.84;100.00
51299;BME280;37382;45.192;9.790;2022-07-29T03:15:09;101029.56;;;23.98;100.00
51299;BME280;37382;45.192;9.790;2022-07-29T03:17:37;101039.59;;;23.78;100.00
51299;BME280;37382;45.192;9.790;2022-07-29T03:20:07;101033.22;;;23.88;100.00
51299;BME280;37382;45.192;9.790;2022-07-29T03:22:42;101035.16;;;23.72;100.00
51299;BME280;37382;45.192;9.790;2022-07-29T03:25:11;101040.16;;;23.96;100.00
51299;BME280;37382;45.192;9.790;2022-07-29T03:27:39;101044.03;;;23.69;100.00
51299;BME280;37382;45.192;9.790;2022-07-29T03:30:07;101055.69;;;23.35;100.00
51299;BME280;37382;45.192;9.790;2022-07-29T03:32:36;101047.91;;;23.32;100.00
51299;BME280;37382;45.192;9.790;2022-07-29T03:35:04;101045.72;;;23.55;100.00
51299;BME280;37382;45.192;9.790;2022-07-29T03:37:32;101051.19;;;23.08;100.00
51299;BME280;37382;45.192;9.790;2022-07-29T03:40:05;101047.38;;;23.56;100.00
51299;BME280;37382;45.192;9.790;2022-07-29T03:42:36;101059.56;;;23.29;100.00
51299;BME280;37382;45.192;9.790;2022-07-29T03:45:07;101055.13;;;23.23;100.00
51299;BME280;37382;45.192;9.790;2022-07-29T03:47:40;101053.75;;;23.41;100.00
51299;BME280;37382;45.192;9.790;2022-07-29T03:50:18;101043.50;;;23.36;100.00
51299;BME280;37382;45.192;9.790;2022-07-29T03:52:48;101053.47;;;23.63;100.00
51299;BME280;37382;45.192;9.790;2022-07-29T03:55:16;101059.56;;;23.24;100.00
51299;BME280;37382;45.192;9.790;2022-07-29T03:57:46;101054.03;;;23.24;100.00
51299;BME280;37382;45.192;9.790;2022-07-29T04:00:14;101051.25;;;23.39;100.00
51299;BME280;37382;45.192;9.790;2022-07-29T04:02:44;101047.94;;;23.58;100.00
51299;BME280;37382;45.192;9.790;2022-07-29T04:05:16;101044.91;;;23.54;100.00
51299;BME280;37382;45.192;9.790;2022-07-29T04:07:45;101041.25;;;23.64;100.00
51299;BME280;37382;45.192;9.790;2022-07-29T04:10:14;101039.88;;;23.46;100.00
51299;BME280;37382;45.192;9.790;2022-07-29T04:12:43;101041.25;;;23.23;100.00
51299;BME280;37382;45.192;9.790;2022-07-29T04:15:10;101042.94;;;23.34;100.00
51299;BME280;37382;45.192;9.790;2022-07-29T04:17:38;101051.78;;;23.31;100.00
51299;BME280;37382;45.192;9.790;2022-07-29T04:20:06;101050.13;;;23.35;100.00
51299;BME280;37382;45.192;9.790;2022-07-29T04:22:34;101057.91;;;23.38;100.00
51299;BME280;37382;45.192;9.790;2022-07-29T04:25:01;101065.13;;;23.29;100.00
51299;BME280;37382;45.192;9.790;2022-07-29T04:27:30;101072.88;;;23.22;100.00
51299;BME280;37382;45.192;9.790;2022-07-29T04:29:58;101075.13;;;23.30;100.00
51299;BME280;37382;45.192;9.790;2022-07-29T04:32:25;101077.81;;;23.04;100.00
51299;BME280;37382;45.192;9.790;2022-07-29T04:34:54;101082.31;;;23.11;100.00
51299;BME280;37382;45.192;9.790;2022-07-29T04:37:21;101085.66;;;23.23;100.00
51299;BME280;37382;45.192;9.790;2022-07-29T04:39:48;101099.00;;;23.36;100.00
51299;BME280;37382;45.192;9.790;2022-07-29T04:42:16;101097.38;;;23.40;100.00
51299;BME280;37382;45.192;9.790;2022-07-29T04:44:51;101112.56;;;23.12;100.00
51299;BME280;37382;45.192;9.790;2022-07-29T04:47:18;101113.41;;;23.18;100.00
51299;BME280;37382;45.192;9.790;2022-07-29T04:49:46;101126.16;;;23.14;100.00
51299;BME280;37382;45.192;9.790;2022-07-29T04:52:13;101119.00;;;23.38;100.00
51299;BME280;37382;45.192;9.790;2022-07-29T04:54:41;101122.09;;;23.57;100.00
51299;BME280;37382;45.192;9.790;2022-07-29T04:57:08;101126.25;;;23.50;100.00
51299;BME280;37382;45.192;9.790;2022-07-29T04:59:36;101123.50;;;23.65;100.00
51299;BME280;37382;45.192;9.790;2022-07-29T05:02:03;101123.50;;;23.86;100.00
51299;BME280;37382;45.192;9.790;2022-07-29T05:04:31;101120.72;;;24.17;100.00
51299;BME280;37382;45.192;9.790;2022-07-29T05:06:58;101114.59;;;24.04;100.00
51299;BME280;37382;45.192;9.790;2022-07-29T05:09:26;101107.38;;;24.19;100.00
51299;BME280;37382;45.192;9.790;2022-07-29T05:11:53;101106.25;;;24.04;100.00
51299;BME280;37382;45.192;9.790;2022-07-29T05:14:21;101110.69;;;24.21;100.00
51299;BME280;37382;45.192;9.790;2022-07-29T05:16:49;101110.66;;;24.41;100.00
51299;BME280;37382;45.192;9.790;2022-07-29T05:19:18;101120.16;;;24.25;100.00
51299;BME280;37382;45.192;9.790;2022-07-29T05:21:45;101120.41;;;24.28;100.00
51299;BME280;37382;45.192;9.790;2022-07-29T05:24:13;101128.19;;;23.75;100.00
51299;BME280;37382;45.192;9.790;2022-07-29T05:26:42;101117.91;;;24.27;100.00
51299;BME280;37382;45.192;9.790;2022-07-29T05:29:09;101114.06;;;23.97;100.00
51299;BME280;37382;45.192;9.790;2022-07-29T05:31:58;101121.00;;;23.79;100.00
51299;BME280;37382;45.192;9.790;2022-07-29T05:34:26;101116.53;;;23.78;100.00
51299;BME280;37382;45.192;9.790;2022-07-29T05:36:54;101107.97;;;24.00;100.00
51299;BME280;37382;45.192;9.790;2022-07-29T05:39:22;101102.09;;;24.07;100.00
51299;BME280;37382;45.192;9.790;2022-07-29T05:42:09;101091.75;;;24.38;100.00
51299;BME280;37382;45.192;9.790;2022-07-29T05:44:38;101093.22;;;24.00;100.00
51299;BME280;37382;45.192;9.790;2022-07-29T05:47:06;101095.72;;;23.50;100.00
51299;BME280;37382;45.192;9.790;2022-07-29T05:49:33;101096.53;;;23.45;100.00
51299;BME280;37382;45.192;9.790;2022-07-29T05:52:01;101098.47;;;23.55;100.00
51299;BME280;37382;45.192;9.790;2022-07-29T05:54:28;101100.16;;;23.92;100.00
51299;BME280;37382;45.192;9.790;2022-07-29T05:56:56;101104.59;;;23.52;100.00
51299;BME280;37382;45.192;9.790;2022-07-29T05:59:23;101094.31;;;23.52;100.00
51299;BME280;37382;45.192;9.790;2022-07-29T06:01:57;101096.53;;;23.66;100.00
51299;BME280;37382;45.192;9.790;2022-07-29T06:04:24;101098.50;;;23.75;100.00
51299;BME280;37382;45.192;9.790;2022-07-29T06:06:52;101105.72;;;23.82;100.00
51299;BME280;37382;45.192;9.790;2022-07-29T06:09:19;101106.03;;;23.95;100.00
51299;BME280;37382;45.192;9.790;2022-07-29T06:11:47;101103.78;;;23.87;100.00
51299;BME280;37382;45.192;9.790;2022-07-29T06:14:14;101112.41;;;23.91;100.00
51299;BME280;37382;45.192;9.790;2022-07-29T06:16:42;101116.56;;;23.98;100.00
51299;BME280;37382;45.192;9.790;2022-07-29T06:19:10;101117.97;;;24.06;100.00
51299;BME280;37382;45.192;9.790;2022-07-29T06:21:44;101127.63;;;24.34;100.00
51299;BME280;37382;45.192;9.790;2022-07-29T06:24:12;101131.53;;;24.39;100.00
51299;BME280;37382;45.192;9.790;2022-07-29T06:26:41;101141.00;;;24.17;100.00
51299;BME280;37382;45.192;9.790;2022-07-29T06:29:10;101136.84;;;24.20;100.00
51299;BME280;37382;45.192;9.790;2022-07-29T06:31:38;101133.19;;;24.50;100.00
51299;BME280;37382;45.192;9.790;2022-07-29T06:34:06;101134.56;;;24.58;100.00
51299;BME280;37382;45.192;9.790;2022-07-29T06:36:35;101132.31;;;24.65;100.00
51299;BME280;37382;45.192;9.790;2022-07-29T06:39:07;101133.63;;;24.83;100.00
51299;BME280;37382;45.192;9.790;2022-07-29T06:41:35;101130.22;;;25.01;100.00
51299;BME280;37382;45.192;9.790;2022-07-29T06:44:09;101131.41;;;24.90;100.00
51299;BME280;37382;45.192;9.790;2022-07-29T06:46:36;101132.50;;;24.89;100.00
51299;BME280;37382;45.192;9.790;2022-07-29T06:49:04;101130.78;;;25.03;100.00
51299;BME280;37382;45.192;9.790;2022-07-29T06:51:32;101132.09;;;25.16;100.00
51299;BME280;37382;45.192;9.790;2022-07-29T06:53:59;101130.41;;;25.15;100.00
51299;BME280;37382;45.192;9.790;2022-07-29T06:56:30;101127.91;;;25.29;100.00
51299;BME280;37382;45.192;9.790;2022-07-29T06:59:04;101135.22;;;25.54;100.00
51299;BME280;37382;45.192;9.790;2022-07-29T07:01:32;101129.84;;;25.68;100.00
51299;BME280;37382;45.192;9.790;2022-07-29T07:04:00;101127.47;;;25.86;100.00
51299;BME280;37382;45.192;9.790;2022-07-29T07:06:27;101136.03;;;25.60;100.00
51299;BME280;37382;45.192;9.790;2022-07-29T07:08:55;101134.66;;;25.57;100.00
51299;BME280;37382;45.192;9.790;2022-07-29T07:11:22;101131.63;;;25.88;100.00
51299;BME280;37382;45.192;9.790;2022-07-29T07:13:50;101138.19;;;25.73;100.00
51299;BME280;37382;45.192;9.790;2022-07-29T07:16:18;101139.50;;;25.81;100.00
51299;BME280;37382;45.192;9.790;2022-07-29T07:18:45;101141.13;;;25.87;100.00
51299;BME280;37382;45.192;9.790;2022-07-29T07:21:13;101131.59;;;25.93;100.00
51299;BME280;37382;45.192;9.790;2022-07-29T07:23:46;101124.41;;;25.87;100.00
51299;BME280;37382;45.192;9.790;2022-07-29T07:26:14;101123.44;;;25.68;100.00
51299;BME280;37382;45.192;9.790;2022-07-29T07:28:42;101133.22;;;25.95;100.00
51299;BME280;37382;45.192;9.790;2022-07-29T07:31:10;101117.59;;;26.33;100.00
51299;BME280;37382;45.192;9.790;2022-07-29T07:33:37;101121.16;;;26.87;100.00
51299;BME280;37382;45.192;9.790;2022-07-29T07:36:05;101125.63;;;26.88;100.00
51299;BME280;37382;45.192;9.790;2022-07-29T07:38:32;101130.66;;;26.62;100.00
51299;BME280;37382;45.192;9.790;2022-07-29T07:41:00;101123.06;;;26.68;100.00
51299;BME280;37382;45.192;9.790;2022-07-29T07:43:28;101120.28;;;27.30;100.00
51299;BME280;37382;45.192;9.790;2022-07-29T07:45:55;101118.81;;;26.75;100.00
51299;BME280;37382;45.192;9.790;2022-07-29T07:48:23;101117.94;;;26.99;100.00
51299;BME280;37382;45.192;9.790;2022-07-29T07:50:54;101109.53;;;27.61;100.00
51299;BME280;37382;45.192;9.790;2022-07-29T07:53:21;101117.84;;;27.04;100.00
51299;BME280;37382;45.192;9.790;2022-07-29T07:55:49;101115.88;;;26.86;100.00
51299;BME280;37382;45.192;9.790;2022-07-29T07:58:36;101113.00;;;27.15;100.00
51299;BME280;37382;45.192;9.790;2022-07-29T08:01:04;101110.88;;;26.83;100.00
51299;BME280;37382;45.192;9.790;2022-07-29T08:03:32;101108.81;;;26.45;100.00
51299;BME280;37382;45.192;9.790;2022-07-29T08:06:01;101098.00;;;26.62;100.00
51299;BME280;37382;45.192;9.790;2022-07-29T08:08:28;101106.38;;;27.06;100.00
51299;BME280;37382;45.192;9.790;2022-07-29T08:10:56;101105.34;;;27.02;100.00
51299;BME280;37382;45.192;9.790;2022-07-29T08:13:26;101112.13;;;27.14;100.00
51299;BME280;37382;45.192;9.790;2022-07-29T08:15:56;101107.28;;;27.01;100.00
51299;BME280;37382;45.192;9.790;2022-07-29T08:18:30;101113.00;;;27.15;100.00
51299;BME280;37382;45.192;9.790;2022-07-29T08:20:58;101106.22;;;27.59;100.00
51299;BME280;37382;45.192;9.790;2022-07-29T08:23:26;101109.66;;;27.13;100.00
51299;BME280;37382;45.192;9.790;2022-07-29T08:26:13;101100.88;;;27.01;100.00
51299;BME280;37382;45.192;9.790;2022-07-29T08:28:44;101102.31;;;26.98;100.00
51299;BME280;37382;45.192;9.790;2022-07-29T08:31:13;101098.84;;;27.82;99.58
51299;BME280;37382;45.192;9.790;2022-07-29T08:33:41;101104.19;;;27.98;98.62
51299;BME280;37382;45.192;9.790;2022-07-29T08:36:09;101105.72;;;27.71;99.31
51299;BME280;37382;45.192;9.790;2022-07-29T08:38:37;101111.13;;;28.00;97.71
51299;BME280;37382;45.192;9.790;2022-07-29T08:41:04;101093.28;;;28.57;92.43
51299;BME280;37382;45.192;9.790;2022-07-29T08:43:32;101094.41;;;28.56;92.35
51299;BME280;37382;45.192;9.790;2022-07-29T08:46:02;101100.41;;;27.89;93.13
51299;BME280;37382;45.192;9.790;2022-07-29T08:48:30;101098.13;;;28.37;89.25
51299;BME280;37382;45.192;9.790;2022-07-29T08:50:59;101095.69;;;28.64;86.50
51299;BME280;37382;45.192;9.790;2022-07-29T08:53:29;101105.53;;;28.61;87.25
51299;BME280;37382;45.192;9.790;2022-07-29T08:55:57;101110.22;;;28.05;88.53
51299;BME280;37382;45.192;9.790;2022-07-29T08:58:26;101099.97;;;27.81;91.51
51299;BME280;37382;45.192;9.790;2022-07-29T09:00:55;101108.56;;;27.52;91.43
51299;BME280;37382;45.192;9.790;2022-07-29T09:03:29;101101.53;;;27.55;94.37
51299;BME280;37382;45.192;9.790;2022-07-29T09:06:01;101096.91;;;27.45;92.67
51299;BME280;37382;45.192;9.790;2022-07-29T09:08:31;101085.59;;;27.55;93.00
51299;BME280;37382;45.192;9.790;2022-07-29T09:11:00;101087.16;;;27.42;93.18
51299;BME280;37382;45.192;9.790;2022-07-29T09:13:30;101082.69;;;27.60;91.48
51299;BME280;37382;45.192;9.790;2022-07-29T09:15:57;101081.47;;;28.32;87.49
51299;BME280;37382;45.192;9.790;2022-07-29T09:18:34;101076.06;;;28.78;83.86
51299;BME280;37382;45.192;9.790;2022-07-29T09:21:04;101076.09;;;28.64;81.93
51299;BME280;37382;45.192;9.790;2022-07-29T09:24:17;101067.91;;;29.18;81.21
51299;BME280;37382;45.192;9.790;2022-07-29T09:26:46;101065.81;;;29.23;78.96
51299;BME280;37382;45.192;9.790;2022-07-29T09:29:19;101070.56;;;29.37;80.27
51299;BME280;37382;45.192;9.790;2022-07-29T09:31:49;101070.88;;;29.58;80.39
51299;BME280;37382;45.192;9.790;2022-07-29T09:34:28;101068.50;;;29.96;77.76
51299;BME280;37382;45.192;9.790;2022-07-29T09:36:58;101069.19;;;30.33;74.98
51299;BME280;37382;45.192;9.790;2022-07-29T09:42:02;101059.16;;;30.10;72.82
51299;BME280;37382;45.192;9.790;2022-07-29T09:44:48;101064.38;;;30.65;70.05
51299;BME280;37382;45.192;9.790;2022-07-29T09:47:18;101058.00;;;29.57;73.50
51299;BME280;37382;45.192;9.790;2022-07-29T09:49:59;101059.78;;;29.30;75.48
51299;BME280;37382;45.192;9.790;2022-07-29T09:52:28;101051.31;;;29.07;76.78
51299;BME280;37382;45.192;9.790;2022-07-29T09:55:07;101055.78;;;29.08;76.23
51299;BME280;37382;45.192;9.790;2022-07-29T09:57:35;101049.00;;;29.23;78.12
51299;BME280;37382;45.192;9.790;2022-07-29T10:00:06;101047.25;;;29.14;76.63
51299;BME280;37382;45.192;9.790;2022-07-29T10:02:42;101040.13;;;29.98;73.79
51299;BME280;37382;45.192;9.790;2022-07-29T10:05:22;101034.00;;;30.27;72.90
51299;BME280;37382;45.192;9.790;2022-07-29T10:07:54;101032.25;;;30.40;71.07
51299;BME280;37382;45.192;9.790;2022-07-29T10:10:26;101032.81;;;30.77;69.83
51299;BME280;37382;45.192;9.790;2022-07-29T10:15:40;101029.88;;;30.91;67.56
51299;BME280;37382;45.192;9.790;2022-07-29T10:18:09;101038.84;;;31.37;67.58
51299;BME280;37382;45.192;9.790;2022-07-29T10:20:37;101039.63;;;30.94;67.24
51299;BME280;37382;45.192;9.790;2022-07-29T10:23:05;101042.78;;;31.62;64.79
51299;BME280;37382;45.192;9.790;2022-07-29T10:25:33;101028.47;;;31.93;62.80
51299;BME280;37382;45.192;9.790;2022-07-29T10:28:00;101029.81;;;31.87;61.85
51299;BME280;37382;45.192;9.790;2022-07-29T10:30:28;101030.56;;;31.49;63.37
51299;BME280;37382;45.192;9.790;2022-07-29T10:35:53;101021.75;;;32.24;63.12
51299;BME280;37382;45.192;9.790;2022-07-29T10:44:21;101010.50;;;32.54;59.28
51299;BME280;37382;45.192;9.790;2022-07-29T10:46:51;101010.94;;;31.88;61.52
51299;BME280;37382;45.192;9.790;2022-07-29T10:51:56;101003.75;;;32.97;57.94
51299;BME280;37382;45.192;9.790;2022-07-29T10:57:24;100998.88;;;31.87;58.30
51299;BME280;37382;45.192;9.790;2022-07-29T11:00:27;100986.53;;;31.71;60.29
51299;BME280;37382;45.192;9.790;2022-07-29T11:02:55;100977.94;;;32.06;60.87
51299;BME280;37382;45.192;9.790;2022-07-29T11:05:25;100974.25;;;32.95;58.42
51299;BME280;37382;45.192;9.790;2022-07-29T11:10:48;100968.75;;;32.98;58.11
51299;BME280;37382;45.192;9.790;2022-07-29T11:16:16;100968.31;;;31.68;62.00
51299;BME280;37382;45.192;9.790;2022-07-29T11:21:42;100975.69;;;30.99;63.43
51299;BME280;37382;45.192;9.790;2022-07-29T11:24:28;100959.16;;;31.89;60.94
51299;BME280;37382;45.192;9.790;2022-07-29T11:29:54;100955.31;;;32.83;56.74
51299;BME280;37382;45.192;9.790;2022-07-29T11:32:24;100956.22;;;33.08;56.13
51299;BME280;37382;45.192;9.790;2022-07-29T11:35:15;100955.91;;;32.68;56.61
51299;BME280;37382;45.192;9.790;2022-07-29T11:38:24;100949.53;;;33.34;53.45
51299;BME280;37382;45.192;9.790;2022-07-29T11:41:20;100936.59;;;33.33;53.37
51299;BME280;37382;45.192;9.790;2022-07-29T11:46:47;100949.56;;;34.29;53.77
51299;BME280;37382;45.192;9.790;2022-07-29T11:49:24;100940.97;;;33.43;53.89
51299;BME280;37382;45.192;9.790;2022-07-29T11:52:00;100942.06;;;33.50;53.90
51299;BME280;37382;45.192;9.790;2022-07-29T11:54:33;100942.13;;;33.08;54.60
51299;BME280;37382;45.192;9.790;2022-07-29T11:57:21;100940.31;;;33.71;54.42
51299;BME280;37382;45.192;9.790;2022-07-29T12:00:05;100936.31;;;32.92;55.48
51299;BME280;37382;45.192;9.790;2022-07-29T12:02:42;100928.19;;;33.12;55.87
51299;BME280;37382;45.192;9.790;2022-07-29T12:05:15;100935.66;;;32.23;57.27
51299;BME280;37382;45.192;9.790;2022-07-29T12:10:40;100923.44;;;33.25;55.68
51299;BME280;37382;45.192;9.790;2022-07-29T12:13:09;100921.53;;;33.99;54.52
51299;BME280;37382;45.192;9.790;2022-07-29T12:15:39;100928.91;;;33.55;54.91
51299;BME280;37382;45.192;9.790;2022-07-29T12:18:18;100913.25;;;33.57;55.29
51299;BME280;37382;45.192;9.790;2022-07-29T12:21:01;100911.09;;;34.65;51.28
51299;BME280;37382;45.192;9.790;2022-07-29T12:23:32;100913.09;;;34.77;50.81
51299;BME280;37382;45.192;9.790;2022-07-29T12:26:05;100904.50;;;35.02;49.21
51299;BME280;37382;45.192;9.790;2022-07-29T12:28:51;100893.75;;;35.23;49.02
51299;BME280;37382;45.192;9.790;2022-07-29T12:31:20;100888.69;;;34.72;49.89
51299;BME280;37382;45.192;9.790;2022-07-29T12:34:10;100887.72;;;34.52;50.47
51299;BME280;37382;45.192;9.790;2022-07-29T12:36:38;100888.91;;;35.36;48.93
51299;BME280;37382;45.192;9.790;2022-07-29T12:39:06;100874.75;;;35.84;47.89
51299;BME280;37382;45.192;9.790;2022-07-29T12:41:34;100884.16;;;35.40;47.95
51299;BME280;37382;45.192;9.790;2022-07-29T12:44:02;100882.22;;;35.92;47.57
51299;BME280;37382;45.192;9.790;2022-07-29T12:46:31;100868.78;;;35.25;47.88
51299;BME280;37382;45.192;9.790;2022-07-29T12:48:59;100887.56;;;35.18;48.63
51299;BME280;37382;45.192;9.790;2022-07-29T12:51:38;100880.25;;;35.17;47.50
51299;BME280;37382;45.192;9.790;2022-07-29T12:54:06;100874.19;;;35.94;45.99
51299;BME280;37382;45.192;9.790;2022-07-29T12:56:35;100865.16;;;35.89;46.68
51299;BME280;37382;45.192;9.790;2022-07-29T12:59:19;100861.44;;;36.04;45.34
51299;BME280;37382;45.192;9.790;2022-07-29T13:01:50;100854.66;;;35.73;45.43
51299;BME280;37382;45.192;9.790;2022-07-29T13:04:30;100840.50;;;35.89;46.16
51299;BME280;37382;45.192;9.790;2022-07-29T13:07:03;100830.22;;;35.49;46.68
51299;BME280;37382;45.192;9.790;2022-07-29T13:09:43;100822.38;;;35.42;45.29
51299;BME280;37382;45.192;9.790;2022-07-29T13:12:13;100827.94;;;35.55;45.79
51299;BME280;37382;45.192;9.790;2022-07-29T13:14:46;100842.88;;;36.62;45.45
51299;BME280;37382;45.192;9.790;2022-07-29T13:17:18;100843.97;;;35.83;45.54
51299;BME280;37382;45.192;9.790;2022-07-29T13:20:06;100848.81;;;36.53;44.33
51299;BME280;37382;45.192;9.790;2022-07-29T13:22:35;100831.69;;;35.59;46.64
51299;BME280;37382;45.192;9.790;2022-07-29T13:25:04;100830.25;;;35.05;47.52
51299;BME280;37382;45.192;9.790;2022-07-29T13:27:36;100822.28;;;34.79;48.14
51299;BME280;37382;45.192;9.790;2022-07-29T13:30:05;100820.56;;;36.02;44.97
51299;BME280;37382;45.192;9.790;2022-07-29T13:32:33;100818.25;;;35.24;46.73
51299;BME280;37382;45.192;9.790;2022-07-29T13:35:04;100816.28;;;35.92;45.61
51299;BME280;37382;45.192;9.790;2022-07-29T13:37:34;100822.69;;;36.63;44.91
51299;BME280;37382;45.192;9.790;2022-07-29T13:40:03;100820.91;;;36.75;43.55
51299;BME280;37382;45.192;9.790;2022-07-29T13:42:32;100824.66;;;36.04;44.57
51299;BME280;37382;45.192;9.790;2022-07-29T13:45:00;100835.47;;;34.74;46.47
51299;BME280;37382;45.192;9.790;2022-07-29T13:47:28;100841.22;;;33.97;48.36
51299;BME280;37382;45.192;9.790;2022-07-29T13:50:00;100838.16;;;33.53;49.76
51299;BME280;37382;45.192;9.790;2022-07-29T13:52:28;100827.34;;;32.84;53.12
51299;BME280;37382;45.192;9.790;2022-07-29T13:54:56;100834.69;;;33.10;51.98
51299;BME280;37382;45.192;9.790;2022-07-29T13:57:23;100835.97;;;33.00;51.96
51299;BME280;37382;45.192;9.790;2022-07-29T13:59:51;100820.41;;;32.82;52.42